Terminal Aerodrome Forecast
Issued by NWS

Home | Current Version | Previous Version | Text Only | Print | Product List | Glossary On
Versions: 1 2 3 4 5 6 7 8 9 10 11 12 13 14 15 16 17 18
000
FTUS45 KRIW 281100
TAFCPR
TAF
KCPR 281125Z 2812/2912 04010KT P6SM SCT012 OVC025
     FM282000 05014G20KT P6SM VCSH SCT020 BKN040
     FM282300 06010G15KT 4SM SHRA VCTS SCT015 OVC030CB
     FM290300 02008KT P6SM VCSH SCT015 BKN050=

USA.gov is the U.S. government's official web portal to all federal, state and local government web resources and services.